sensor_id;sensor_type;location;lat;lon;timestamp;P1;durP1;ratioP1;P2;durP2;ratioP2
13592;SDS011;6867;50.998;4.250;2024-03-08T00:01:36;24.53;;;13.77;;
13592;SDS011;6867;50.998;4.250;2024-03-08T00:04:04;20.63;;;12.47;;
13592;SDS011;6867;50.998;4.250;2024-03-08T00:06:31;22.93;;;14.20;;
13592;SDS011;6867;50.998;4.250;2024-03-08T00:08:58;26.67;;;13.57;;
13592;SDS011;6867;50.998;4.250;2024-03-08T00:11:25;25.43;;;13.77;;
13592;SDS011;6867;50.998;4.250;2024-03-08T00:13:52;27.53;;;14.97;;
13592;SDS011;6867;50.998;4.250;2024-03-08T00:16:22;25.53;;;15.20;;
13592;SDS011;6867;50.998;4.250;2024-03-08T00:18:49;23.83;;;14.13;;
13592;SDS011;6867;50.998;4.250;2024-03-08T00:21:17;29.73;;;15.60;;
13592;SDS011;6867;50.998;4.250;2024-03-08T00:23:44;26.10;;;14.80;;
13592;SDS011;6867;50.998;4.250;2024-03-08T00:26:13;26.03;;;15.13;;
13592;SDS011;6867;50.998;4.250;2024-03-08T00:28:40;32.33;;;16.37;;
13592;SDS011;6867;50.998;4.250;2024-03-08T00:31:07;29.00;;;16.40;;
13592;SDS011;6867;50.998;4.250;2024-03-08T00:33:35;33.77;;;16.37;;
13592;SDS011;6867;50.998;4.250;2024-03-08T00:36:03;29.73;;;15.10;;
13592;SDS011;6867;50.998;4.250;2024-03-08T00:38:31;29.63;;;15.77;;
13592;SDS011;6867;50.998;4.250;2024-03-08T00:40:59;28.77;;;15.90;;
13592;SDS011;6867;50.998;4.250;2024-03-08T00:43:27;33.30;;;16.57;;
13592;SDS011;6867;50.998;4.250;2024-03-08T00:45:55;30.33;;;15.73;;
13592;SDS011;6867;50.998;4.250;2024-03-08T00:48:22;33.93;;;17.53;;
13592;SDS011;6867;50.998;4.250;2024-03-08T00:50:49;37.70;;;17.03;;
13592;SDS011;6867;50.998;4.250;2024-03-08T00:53:16;35.47;;;17.43;;
13592;SDS011;6867;50.998;4.250;2024-03-08T00:55:44;34.67;;;17.83;;
13592;SDS011;6867;50.998;4.250;2024-03-08T00:58:11;34.77;;;18.03;;
13592;SDS011;6867;50.998;4.250;2024-03-08T01:00:38;35.00;;;17.67;;
13592;SDS011;6867;50.998;4.250;2024-03-08T01:03:05;31.30;;;17.73;;
13592;SDS011;6867;50.998;4.250;2024-03-08T01:05:32;34.93;;;17.90;;
13592;SDS011;6867;50.998;4.250;2024-03-08T01:07:58;39.03;;;17.97;;
13592;SDS011;6867;50.998;4.250;2024-03-08T01:10:25;31.43;;;17.37;;
13592;SDS011;6867;50.998;4.250;2024-03-08T01:12:53;37.87;;;18.80;;
13592;SDS011;6867;50.998;4.250;2024-03-08T01:15:22;35.47;;;18.20;;
13592;SDS011;6867;50.998;4.250;2024-03-08T01:17:48;32.10;;;17.13;;
13592;SDS011;6867;50.998;4.250;2024-03-08T01:20:16;32.17;;;17.57;;
13592;SDS011;6867;50.998;4.250;2024-03-08T01:22:45;37.60;;;17.90;;
13592;SDS011;6867;50.998;4.250;2024-03-08T01:25:12;33.87;;;17.90;;
13592;SDS011;6867;50.998;4.250;2024-03-08T01:27:38;30.97;;;16.40;;
13592;SDS011;6867;50.998;4.250;2024-03-08T01:30:07;33.77;;;17.43;;
13592;SDS011;6867;50.998;4.250;2024-03-08T01:32:35;32.67;;;17.80;;
13592;SDS011;6867;50.998;4.250;2024-03-08T01:35:03;32.07;;;16.83;;
13592;SDS011;6867;50.998;4.250;2024-03-08T01:37:31;31.60;;;17.33;;
13592;SDS011;6867;50.998;4.250;2024-03-08T01:39:57;34.37;;;17.93;;
13592;SDS011;6867;50.998;4.250;2024-03-08T01:42:24;35.37;;;17.87;;
13592;SDS011;6867;50.998;4.250;2024-03-08T01:44:54;37.77;;;17.80;;
13592;SDS011;6867;50.998;4.250;2024-03-08T01:47:22;35.27;;;17.63;;
13592;SDS011;6867;50.998;4.250;2024-03-08T01:49:49;31.40;;;18.47;;
13592;SDS011;6867;50.998;4.250;2024-03-08T01:52:16;34.70;;;17.83;;
13592;SDS011;6867;50.998;4.250;2024-03-08T01:54:47;28.43;;;16.40;;
13592;SDS011;6867;50.998;4.250;2024-03-08T01:57:14;31.03;;;17.83;;
13592;SDS011;6867;50.998;4.250;2024-03-08T01:59:41;34.47;;;17.87;;
13592;SDS011;6867;50.998;4.250;2024-03-08T02:02:08;32.43;;;17.63;;
13592;SDS011;6867;50.998;4.250;2024-03-08T02:04:42;31.43;;;18.60;;
13592;SDS011;6867;50.998;4.250;2024-03-08T02:07:09;36.37;;;18.37;;
13592;SDS011;6867;50.998;4.250;2024-03-08T02:09:36;35.40;;;18.53;;
13592;SDS011;6867;50.998;4.250;2024-03-08T02:12:04;36.53;;;18.93;;
13592;SDS011;6867;50.998;4.250;2024-03-08T02:14:31;31.10;;;18.30;;
13592;SDS011;6867;50.998;4.250;2024-03-08T02:17:00;30.93;;;18.23;;
13592;SDS011;6867;50.998;4.250;2024-03-08T02:19:27;32.20;;;18.53;;
13592;SDS011;6867;50.998;4.250;2024-03-08T02:21:55;33.27;;;17.43;;
13592;SDS011;6867;50.998;4.250;2024-03-08T02:24:22;32.13;;;17.93;;
13592;SDS011;6867;50.998;4.250;2024-03-08T02:26:50;31.57;;;18.30;;
13592;SDS011;6867;50.998;4.250;2024-03-08T02:29:18;29.90;;;17.40;;
13592;SDS011;6867;50.998;4.250;2024-03-08T02:31:46;31.27;;;18.13;;
13592;SDS011;6867;50.998;4.250;2024-03-08T02:34:13;29.23;;;17.77;;
13592;SDS011;6867;50.998;4.250;2024-03-08T02:36:40;32.13;;;17.77;;
13592;SDS011;6867;50.998;4.250;2024-03-08T02:39:08;32.80;;;18.57;;
13592;SDS011;6867;50.998;4.250;2024-03-08T02:41:35;33.20;;;18.03;;
13592;SDS011;6867;50.998;4.250;2024-03-08T02:44:02;29.13;;;17.10;;
13592;SDS011;6867;50.998;4.250;2024-03-08T02:46:29;30.57;;;18.30;;
13592;SDS011;6867;50.998;4.250;2024-03-08T02:48:56;36.10;;;18.80;;
13592;SDS011;6867;50.998;4.250;2024-03-08T02:51:23;30.03;;;19.00;;
13592;SDS011;6867;50.998;4.250;2024-03-08T02:53:51;35.17;;;18.87;;
13592;SDS011;6867;50.998;4.250;2024-03-08T02:56:19;33.97;;;17.63;;
13592;SDS011;6867;50.998;4.250;2024-03-08T02:58:47;29.17;;;17.87;;
13592;SDS011;6867;50.998;4.250;2024-03-08T03:01:13;31.60;;;17.80;;
13592;SDS011;6867;50.998;4.250;2024-03-08T03:03:40;33.03;;;18.13;;
13592;SDS011;6867;50.998;4.250;2024-03-08T03:06:07;31.70;;;18.27;;
13592;SDS011;6867;50.998;4.250;2024-03-08T03:08:35;30.03;;;18.83;;
13592;SDS011;6867;50.998;4.250;2024-03-08T03:11:01;31.23;;;18.77;;
13592;SDS011;6867;50.998;4.250;2024-03-08T03:13:30;30.47;;;18.37;;
13592;SDS011;6867;50.998;4.250;2024-03-08T03:15:56;33.90;;;19.43;;
13592;SDS011;6867;50.998;4.250;2024-03-08T03:18:23;31.40;;;18.33;;
13592;SDS011;6867;50.998;4.250;2024-03-08T03:20:52;28.83;;;17.00;;
13592;SDS011;6867;50.998;4.250;2024-03-08T03:23:19;35.10;;;19.03;;
13592;SDS011;6867;50.998;4.250;2024-03-08T03:25:46;32.47;;;18.50;;
13592;SDS011;6867;50.998;4.250;2024-03-08T03:28:13;26.87;;;17.07;;
13592;SDS011;6867;50.998;4.250;2024-03-08T03:30:44;31.77;;;18.23;;
13592;SDS011;6867;50.998;4.250;2024-03-08T03:33:11;30.77;;;18.57;;
13592;SDS011;6867;50.998;4.250;2024-03-08T03:35:40;32.53;;;19.03;;
13592;SDS011;6867;50.998;4.250;2024-03-08T03:38:08;27.83;;;17.67;;
13592;SDS011;6867;50.998;4.250;2024-03-08T03:40:35;33.03;;;18.60;;
13592;SDS011;6867;50.998;4.250;2024-03-08T03:43:02;34.37;;;19.27;;
13592;SDS011;6867;50.998;4.250;2024-03-08T03:45:30;32.87;;;19.97;;
13592;SDS011;6867;50.998;4.250;2024-03-08T03:48:03;33.60;;;19.00;;
13592;SDS011;6867;50.998;4.250;2024-03-08T03:50:31;33.77;;;18.30;;
13592;SDS011;6867;50.998;4.250;2024-03-08T03:52:59;34.83;;;19.83;;
13592;SDS011;6867;50.998;4.250;2024-03-08T03:55:27;36.17;;;18.87;;
13592;SDS011;6867;50.998;4.250;2024-03-08T03:57:53;30.77;;;18.97;;
13592;SDS011;6867;50.998;4.250;2024-03-08T04:00:20;31.30;;;18.13;;
13592;SDS011;6867;50.998;4.250;2024-03-08T04:02:47;30.03;;;17.67;;
13592;SDS011;6867;50.998;4.250;2024-03-08T04:05:15;32.13;;;17.37;;
13592;SDS011;6867;50.998;4.250;2024-03-08T04:07:42;31.37;;;18.30;;
13592;SDS011;6867;50.998;4.250;2024-03-08T04:10:10;28.03;;;18.00;;
13592;SDS011;6867;50.998;4.250;2024-03-08T04:12:38;29.83;;;18.17;;
13592;SDS011;6867;50.998;4.250;2024-03-08T04:15:05;32.57;;;19.40;;
13592;SDS011;6867;50.998;4.250;2024-03-08T04:17:32;31.73;;;18.53;;
13592;SDS011;6867;50.998;4.250;2024-03-08T04:20:01;30.93;;;17.97;;
13592;SDS011;6867;50.998;4.250;2024-03-08T04:22:34;35.67;;;18.17;;
13592;SDS011;6867;50.998;4.250;2024-03-08T04:25:01;29.53;;;18.03;;
13592;SDS011;6867;50.998;4.250;2024-03-08T04:27:28;29.57;;;17.07;;
13592;SDS011;6867;50.998;4.250;2024-03-08T04:29:55;28.43;;;17.60;;
13592;SDS011;6867;50.998;4.250;2024-03-08T04:32:22;32.30;;;18.50;;
13592;SDS011;6867;50.998;4.250;2024-03-08T04:34:48;35.77;;;19.50;;
13592;SDS011;6867;50.998;4.250;2024-03-08T04:37:15;34.50;;;18.97;;
13592;SDS011;6867;50.998;4.250;2024-03-08T04:39:44;34.63;;;18.73;;
13592;SDS011;6867;50.998;4.250;2024-03-08T04:42:12;30.47;;;17.87;;
13592;SDS011;6867;50.998;4.250;2024-03-08T04:44:39;33.30;;;19.57;;
13592;SDS011;6867;50.998;4.250;2024-03-08T04:47:06;32.67;;;19.00;;
13592;SDS011;6867;50.998;4.250;2024-03-08T04:49:33;28.93;;;18.13;;
13592;SDS011;6867;50.998;4.250;2024-03-08T04:52:00;34.43;;;19.40;;
13592;SDS011;6867;50.998;4.250;2024-03-08T04:54:28;33.33;;;19.43;;
13592;SDS011;6867;50.998;4.250;2024-03-08T04:56:57;36.47;;;19.47;;
13592;SDS011;6867;50.998;4.250;2024-03-08T04:59:25;33.53;;;19.13;;
13592;SDS011;6867;50.998;4.250;2024-03-08T05:01:52;33.13;;;18.67;;
13592;SDS011;6867;50.998;4.250;2024-03-08T05:04:19;31.90;;;17.97;;
13592;SDS011;6867;50.998;4.250;2024-03-08T05:06:45;33.27;;;19.17;;
13592;SDS011;6867;50.998;4.250;2024-03-08T05:09:12;34.70;;;17.60;;
13592;SDS011;6867;50.998;4.250;2024-03-08T05:11:39;33.23;;;18.57;;
13592;SDS011;6867;50.998;4.250;2024-03-08T05:14:08;32.07;;;18.30;;
13592;SDS011;6867;50.998;4.250;2024-03-08T05:16:35;35.63;;;18.70;;
13592;SDS011;6867;50.998;4.250;2024-03-08T05:19:02;33.77;;;18.73;;
13592;SDS011;6867;50.998;4.250;2024-03-08T05:21:28;31.67;;;18.77;;
13592;SDS011;6867;50.998;4.250;2024-03-08T05:23:55;31.50;;;18.90;;
13592;SDS011;6867;50.998;4.250;2024-03-08T05:26:22;36.97;;;20.50;;
13592;SDS011;6867;50.998;4.250;2024-03-08T05:28:49;37.37;;;20.33;;
13592;SDS011;6867;50.998;4.250;2024-03-08T05:31:19;36.50;;;18.90;;
13592;SDS011;6867;50.998;4.250;2024-03-08T05:33:47;33.10;;;19.10;;
13592;SDS011;6867;50.998;4.250;2024-03-08T05:36:14;34.23;;;18.73;;
13592;SDS011;6867;50.998;4.250;2024-03-08T05:38:44;33.83;;;20.27;;
13592;SDS011;6867;50.998;4.250;2024-03-08T05:41:11;31.27;;;17.33;;
13592;SDS011;6867;50.998;4.250;2024-03-08T05:43:40;31.03;;;18.33;;
13592;SDS011;6867;50.998;4.250;2024-03-08T05:46:07;36.20;;;20.10;;
13592;SDS011;6867;50.998;4.250;2024-03-08T05:48:35;32.47;;;18.90;;
13592;SDS011;6867;50.998;4.250;2024-03-08T05:51:02;34.73;;;17.80;;
13592;SDS011;6867;50.998;4.250;2024-03-08T05:53:29;32.20;;;18.80;;
13592;SDS011;6867;50.998;4.250;2024-03-08T05:55:57;33.37;;;18.57;;
13592;SDS011;6867;50.998;4.250;2024-03-08T05:58:24;33.63;;;18.57;;
13592;SDS011;6867;50.998;4.250;2024-03-08T06:00:51;37.47;;;19.17;;
13592;SDS011;6867;50.998;4.250;2024-03-08T06:03:18;35.37;;;18.90;;
13592;SDS011;6867;50.998;4.250;2024-03-08T06:05:48;33.50;;;20.13;;
13592;SDS011;6867;50.998;4.250;2024-03-08T06:08:15;32.73;;;17.60;;
13592;SDS011;6867;50.998;4.250;2024-03-08T06:10:44;30.00;;;17.80;;
13592;SDS011;6867;50.998;4.250;2024-03-08T06:13:11;32.03;;;18.20;;
13592;SDS011;6867;50.998;4.250;2024-03-08T06:15:38;30.47;;;18.17;;
13592;SDS011;6867;50.998;4.250;2024-03-08T06:18:05;31.70;;;17.97;;
13592;SDS011;6867;50.998;4.250;2024-03-08T06:20:36;35.97;;;18.93;;
13592;SDS011;6867;50.998;4.250;2024-03-08T06:23:04;28.73;;;17.67;;
13592;SDS011;6867;50.998;4.250;2024-03-08T06:25:30;33.97;;;17.97;;
13592;SDS011;6867;50.998;4.250;2024-03-08T06:27:57;33.70;;;18.87;;
13592;SDS011;6867;50.998;4.250;2024-03-08T06:30:24;32.90;;;19.67;;
13592;SDS011;6867;50.998;4.250;2024-03-08T06:32:51;36.37;;;19.93;;
13592;SDS011;6867;50.998;4.250;2024-03-08T06:35:17;34.53;;;18.47;;
13592;SDS011;6867;50.998;4.250;2024-03-08T06:37:45;33.47;;;18.40;;
13592;SDS011;6867;50.998;4.250;2024-03-08T06:40:13;35.40;;;20.07;;
13592;SDS011;6867;50.998;4.250;2024-03-08T06:42:40;33.53;;;18.33;;
13592;SDS011;6867;50.998;4.250;2024-03-08T06:45:08;32.73;;;18.97;;
13592;SDS011;6867;50.998;4.250;2024-03-08T06:47:35;31.20;;;18.70;;
13592;SDS011;6867;50.998;4.250;2024-03-08T06:50:02;32.67;;;18.07;;
13592;SDS011;6867;50.998;4.250;2024-03-08T06:52:30;31.07;;;17.80;;
13592;SDS011;6867;50.998;4.250;2024-03-08T06:54:58;32.90;;;18.27;;
13592;SDS011;6867;50.998;4.250;2024-03-08T06:57:28;29.07;;;18.43;;
13592;SDS011;6867;50.998;4.250;2024-03-08T06:59:54;32.03;;;17.63;;
13592;SDS011;6867;50.998;4.250;2024-03-08T07:02:22;35.03;;;18.67;;
13592;SDS011;6867;50.998;4.250;2024-03-08T07:04:50;30.00;;;17.23;;
13592;SDS011;6867;50.998;4.250;2024-03-08T07:07:18;30.50;;;17.87;;
13592;SDS011;6867;50.998;4.250;2024-03-08T07:09:45;35.83;;;19.60;;
13592;SDS011;6867;50.998;4.250;2024-03-08T07:12:14;33.70;;;18.43;;
13592;SDS011;6867;50.998;4.250;2024-03-08T07:14:43;29.40;;;18.60;;
13592;SDS011;6867;50.998;4.250;2024-03-08T07:17:10;32.40;;;18.33;;
13592;SDS011;6867;50.998;4.250;2024-03-08T07:19:37;30.87;;;17.90;;
13592;SDS011;6867;50.998;4.250;2024-03-08T07:22:04;32.83;;;18.30;;
13592;SDS011;6867;50.998;4.250;2024-03-08T07:24:33;31.40;;;17.00;;
13592;SDS011;6867;50.998;4.250;2024-03-08T07:27:15;31.03;;;17.03;;
13592;SDS011;6867;50.998;4.250;2024-03-08T07:29:44;47.67;;;18.30;;
13592;SDS011;6867;50.998;4.250;2024-03-08T07:32:11;32.60;;;17.70;;
13592;SDS011;6867;50.998;4.250;2024-03-08T07:34:46;31.77;;;17.90;;
13592;SDS011;6867;50.998;4.250;2024-03-08T07:37:13;28.97;;;16.70;;
13592;SDS011;6867;50.998;4.250;2024-03-08T07:39:40;29.47;;;16.50;;
13592;SDS011;6867;50.998;4.250;2024-03-08T07:42:08;31.37;;;17.87;;
13592;SDS011;6867;50.998;4.250;2024-03-08T07:44:36;33.10;;;17.90;;
13592;SDS011;6867;50.998;4.250;2024-03-08T07:47:05;35.50;;;18.13;;
13592;SDS011;6867;50.998;4.250;2024-03-08T07:49:34;29.83;;;17.50;;
13592;SDS011;6867;50.998;4.250;2024-03-08T07:52:02;28.77;;;17.67;;
13592;SDS011;6867;50.998;4.250;2024-03-08T07:54:32;29.47;;;16.80;;
13592;SDS011;6867;50.998;4.250;2024-03-08T07:56:59;28.40;;;16.50;;
13592;SDS011;6867;50.998;4.250;2024-03-08T07:59:28;29.10;;;17.53;;
13592;SDS011;6867;50.998;4.250;2024-03-08T08:01:54;31.20;;;18.73;;
13592;SDS011;6867;50.998;4.250;2024-03-08T08:04:23;30.77;;;17.07;;
13592;SDS011;6867;50.998;4.250;2024-03-08T08:06:51;29.40;;;15.63;;
13592;SDS011;6867;50.998;4.250;2024-03-08T08:09:19;28.17;;;16.87;;
13592;SDS011;6867;50.998;4.250;2024-03-08T08:11:53;27.03;;;16.50;;
13592;SDS011;6867;50.998;4.250;2024-03-08T08:14:20;33.83;;;18.03;;
13592;SDS011;6867;50.998;4.250;2024-03-08T08:16:47;26.10;;;15.43;;
13592;SDS011;6867;50.998;4.250;2024-03-08T08:19:16;29.70;;;16.10;;
13592;SDS011;6867;50.998;4.250;2024-03-08T08:21:45;28.93;;;16.87;;
13592;SDS011;6867;50.998;4.250;2024-03-08T08:24:12;30.10;;;17.07;;
13592;SDS011;6867;50.998;4.250;2024-03-08T08:26:38;24.27;;;15.40;;
13592;SDS011;6867;50.998;4.250;2024-03-08T08:29:05;25.57;;;15.13;;
13592;SDS011;6867;50.998;4.250;2024-03-08T08:31:32;31.93;;;16.07;;
13592;SDS011;6867;50.998;4.250;2024-03-08T08:33:59;29.23;;;16.27;;
13592;SDS011;6867;50.998;4.250;2024-03-08T08:36:26;26.27;;;15.67;;
13592;SDS011;6867;50.998;4.250;2024-03-08T08:38:56;23.43;;;14.30;;
13592;SDS011;6867;50.998;4.250;2024-03-08T08:41:24;29.30;;;16.23;;
13592;SDS011;6867;50.998;4.250;2024-03-08T08:43:51;24.30;;;14.90;;
13592;SDS011;6867;50.998;4.250;2024-03-08T08:46:18;27.00;;;14.97;;
13592;SDS011;6867;50.998;4.250;2024-03-08T08:48:46;25.03;;;14.87;;
13592;SDS011;6867;50.998;4.250;2024-03-08T08:51:13;25.50;;;15.10;;
13592;SDS011;6867;50.998;4.250;2024-03-08T08:53:40;25.17;;;15.50;;
13592;SDS011;6867;50.998;4.250;2024-03-08T08:56:09;25.90;;;15.73;;
13592;SDS011;6867;50.998;4.250;2024-03-08T08:58:39;25.77;;;15.43;;
13592;SDS011;6867;50.998;4.250;2024-03-08T09:01:07;28.37;;;15.33;;
13592;SDS011;6867;50.998;4.250;2024-03-08T09:03:35;22.57;;;14.27;;
13592;SDS011;6867;50.998;4.250;2024-03-08T09:06:02;23.87;;;14.20;;
13592;SDS011;6867;50.998;4.250;2024-03-08T09:08:29;25.13;;;13.90;;
13592;SDS011;6867;50.998;4.250;2024-03-08T09:10:56;26.30;;;14.87;;
13592;SDS011;6867;50.998;4.250;2024-03-08T09:13:26;26.63;;;14.33;;
13592;SDS011;6867;50.998;4.250;2024-03-08T09:15:53;25.70;;;14.57;;
13592;SDS011;6867;50.998;4.250;2024-03-08T09:18:19;25.23;;;14.50;;
13592;SDS011;6867;50.998;4.250;2024-03-08T09:20:46;25.53;;;14.73;;
13592;SDS011;6867;50.998;4.250;2024-03-08T09:23:13;26.73;;;13.87;;
13592;SDS011;6867;50.998;4.250;2024-03-08T09:25:42;21.07;;;14.37;;
13592;SDS011;6867;50.998;4.250;2024-03-08T09:28:08;23.73;;;14.73;;
13592;SDS011;6867;50.998;4.250;2024-03-08T09:30:38;21.40;;;13.87;;
13592;SDS011;6867;50.998;4.250;2024-03-08T09:33:05;22.07;;;14.50;;
13592;SDS011;6867;50.998;4.250;2024-03-08T09:35:31;23.50;;;14.27;;
13592;SDS011;6867;50.998;4.250;2024-03-08T09:37:58;21.70;;;14.03;;
13592;SDS011;6867;50.998;4.250;2024-03-08T09:40:25;23.93;;;13.90;;
13592;SDS011;6867;50.998;4.250;2024-03-08T09:42:52;20.70;;;13.50;;
13592;SDS011;6867;50.998;4.250;2024-03-08T09:45:21;22.03;;;13.30;;
13592;SDS011;6867;50.998;4.250;2024-03-08T09:47:50;20.00;;;12.63;;
13592;SDS011;6867;50.998;4.250;2024-03-08T09:50:18;21.23;;;12.73;;
13592;SDS011;6867;50.998;4.250;2024-03-08T09:52:46;17.80;;;12.27;;
13592;SDS011;6867;50.998;4.250;2024-03-08T09:55:14;24.00;;;13.23;;
13592;SDS011;6867;50.998;4.250;2024-03-08T09:57:47;19.57;;;13.00;;
13592;SDS011;6867;50.998;4.250;2024-03-08T10:00:28;27.00;;;14.97;;
13592;SDS011;6867;50.998;4.250;2024-03-08T10:03:00;21.97;;;13.27;;
13592;SDS011;6867;50.998;4.250;2024-03-08T10:05:27;19.87;;;12.43;;
13592;SDS011;6867;50.998;4.250;2024-03-08T10:07:54;26.43;;;12.90;;
13592;SDS011;6867;50.998;4.250;2024-03-08T10:10:21;18.80;;;12.77;;
13592;SDS011;6867;50.998;4.250;2024-03-08T10:12:48;21.87;;;12.83;;
13592;SDS011;6867;50.998;4.250;2024-03-08T10:15:15;21.70;;;12.27;;
13592;SDS011;6867;50.998;4.250;2024-03-08T10:17:42;24.23;;;12.40;;
13592;SDS011;6867;50.998;4.250;2024-03-08T10:20:14;17.80;;;11.60;;
13592;SDS011;6867;50.998;4.250;2024-03-08T10:22:41;18.03;;;11.23;;
13592;SDS011;6867;50.998;4.250;2024-03-08T10:25:09;20.20;;;12.37;;
13592;SDS011;6867;50.998;4.250;2024-03-08T10:27:37;18.20;;;11.03;;
13592;SDS011;6867;50.998;4.250;2024-03-08T10:30:06;19.00;;;11.83;;
13592;SDS011;6867;50.998;4.250;2024-03-08T10:32:37;18.90;;;11.47;;
13592;SDS011;6867;50.998;4.250;2024-03-08T10:35:06;23.50;;;11.97;;
13592;SDS011;6867;50.998;4.250;2024-03-08T10:37:35;22.90;;;12.77;;
13592;SDS011;6867;50.998;4.250;2024-03-08T10:40:12;18.43;;;11.53;;
13592;SDS011;6867;50.998;4.250;2024-03-08T10:42:47;18.33;;;11.03;;
13592;SDS011;6867;50.998;4.250;2024-03-08T10:45:19;17.00;;;11.33;;
13592;SDS011;6867;50.998;4.250;2024-03-08T10:47:58;21.50;;;12.10;;
13592;SDS011;6867;50.998;4.250;2024-03-08T10:50:35;20.83;;;12.63;;
13592;SDS011;6867;50.998;4.250;2024-03-08T10:53:04;19.73;;;12.17;;
13592;SDS011;6867;50.998;4.250;2024-03-08T10:55:32;19.27;;;11.43;;
13592;SDS011;6867;50.998;4.250;2024-03-08T10:58:00;28.83;;;17.33;;
13592;SDS011;6867;50.998;4.250;2024-03-08T11:00:26;23.20;;;14.10;;
13592;SDS011;6867;50.998;4.250;2024-03-08T11:02:54;17.67;;;10.93;;
13592;SDS011;6867;50.998;4.250;2024-03-08T11:05:31;19.23;;;12.70;;
13592;SDS011;6867;50.998;4.250;2024-03-08T11:08:05;19.10;;;10.90;;
13592;SDS011;6867;50.998;4.250;2024-03-08T11:10:46;19.93;;;11.40;;
13592;SDS011;6867;50.998;4.250;2024-03-08T11:16:01;19.53;;;11.60;;
13592;SDS011;6867;50.998;4.250;2024-03-08T11:18:32;16.40;;;11.13;;
13592;SDS011;6867;50.998;4.250;2024-03-08T11:21:01;17.93;;;10.63;;
13592;SDS011;6867;50.998;4.250;2024-03-08T11:23:31;18.70;;;11.83;;
13592;SDS011;6867;50.998;4.250;2024-03-08T11:25:58;16.63;;;10.77;;
13592;SDS011;6867;50.998;4.250;2024-03-08T11:28:25;18.33;;;11.53;;
13592;SDS011;6867;50.998;4.250;2024-03-08T11:33:51;20.57;;;11.63;;
13592;SDS011;6867;50.998;4.250;2024-03-08T11:36:20;19.40;;;11.43;;
13592;SDS011;6867;50.998;4.250;2024-03-08T11:38:49;17.37;;;11.33;;
13592;SDS011;6867;50.998;4.250;2024-03-08T11:41:18;16.30;;;11.80;;
13592;SDS011;6867;50.998;4.250;2024-03-08T11:43:46;18.43;;;11.53;;
13592;SDS011;6867;50.998;4.250;2024-03-08T11:46:13;14.87;;;10.27;;
13592;SDS011;6867;50.998;4.250;2024-03-08T11:48:41;17.23;;;11.87;;
13592;SDS011;6867;50.998;4.250;2024-03-08T11:51:09;18.93;;;11.43;;
13592;SDS011;6867;50.998;4.250;2024-03-08T11:53:38;16.40;;;11.20;;
13592;SDS011;6867;50.998;4.250;2024-03-08T11:56:08;19.20;;;11.37;;
13592;SDS011;6867;50.998;4.250;2024-03-08T11:58:35;19.27;;;11.30;;
13592;SDS011;6867;50.998;4.250;2024-03-08T12:01:03;18.27;;;11.23;;
13592;SDS011;6867;50.998;4.250;2024-03-08T12:03:31;15.63;;;10.77;;
13592;SDS011;6867;50.998;4.250;2024-03-08T12:05:59;19.40;;;11.60;;
13592;SDS011;6867;50.998;4.250;2024-03-08T12:08:26;19.70;;;11.57;;
13592;SDS011;6867;50.998;4.250;2024-03-08T12:10:54;18.40;;;11.57;;
13592;SDS011;6867;50.998;4.250;2024-03-08T12:13:26;17.33;;;11.40;;
13592;SDS011;6867;50.998;4.250;2024-03-08T12:15:55;15.80;;;10.67;;
13592;SDS011;6867;50.998;4.250;2024-03-08T12:18:23;21.30;;;10.97;;
13592;SDS011;6867;50.998;4.250;2024-03-08T12:20:51;19.03;;;12.13;;
13592;SDS011;6867;50.998;4.250;2024-03-08T12:23:18;19.63;;;11.73;;
13592;SDS011;6867;50.998;4.250;2024-03-08T12:25:45;19.63;;;12.03;;
13592;SDS011;6867;50.998;4.250;2024-03-08T12:28:12;17.27;;;10.93;;
13592;SDS011;6867;50.998;4.250;2024-03-08T12:30:45;15.03;;;10.60;;
13592;SDS011;6867;50.998;4.250;2024-03-08T12:33:13;15.57;;;10.90;;
13592;SDS011;6867;50.998;4.250;2024-03-08T12:35:40;16.90;;;11.27;;
13592;SDS011;6867;50.998;4.250;2024-03-08T12:38:08;17.73;;;11.67;;
13592;SDS011;6867;50.998;4.250;2024-03-08T12:40:35;19.27;;;11.10;;
13592;SDS011;6867;50.998;4.250;2024-03-08T12:43:07;15.47;;;10.97;;
13592;SDS011;6867;50.998;4.250;2024-03-08T12:45:34;17.37;;;11.13;;
13592;SDS011;6867;50.998;4.250;2024-03-08T12:48:03;15.50;;;10.70;;
13592;SDS011;6867;50.998;4.250;2024-03-08T12:50:45;14.47;;;11.17;;
13592;SDS011;6867;50.998;4.250;2024-03-08T12:53:13;18.00;;;11.83;;
13592;SDS011;6867;50.998;4.250;2024-03-08T12:55:39;16.53;;;10.80;;
13592;SDS011;6867;50.998;4.250;2024-03-08T12:58:06;16.00;;;11.10;;
13592;SDS011;6867;50.998;4.250;2024-03-08T13:00:33;17.67;;;10.57;;
13592;SDS011;6867;50.998;4.250;2024-03-08T13:03:03;15.80;;;10.43;;
13592;SDS011;6867;50.998;4.250;2024-03-08T13:05:31;17.40;;;11.10;;
13592;SDS011;6867;50.998;4.250;2024-03-08T13:07:58;16.47;;;11.80;;
13592;SDS011;6867;50.998;4.250;2024-03-08T13:10:25;15.23;;;10.53;;
13592;SDS011;6867;50.998;4.250;2024-03-08T13:12:52;16.37;;;10.67;;
13592;SDS011;6867;50.998;4.250;2024-03-08T13:15:19;17.53;;;10.53;;
13592;SDS011;6867;50.998;4.250;2024-03-08T13:17:46;18.83;;;10.70;;
13592;SDS011;6867;50.998;4.250;2024-03-08T13:20:14;16.90;;;10.95;;
13592;SDS011;6867;50.998;4.250;2024-03-08T13:22:44;15.23;;;10.53;;
13592;SDS011;6867;50.998;4.250;2024-03-08T13:25:12;16.42;;;10.63;;
13592;SDS011;6867;50.998;4.250;2024-03-08T13:27:39;15.50;;;10.47;;
13592;SDS011;6867;50.998;4.250;2024-03-08T13:30:07;16.70;;;10.82;;
13592;SDS011;6867;50.998;4.250;2024-03-08T13:32:38;16.47;;;11.53;;
13592;SDS011;6867;50.998;4.250;2024-03-08T13:35:05;15.68;;;10.88;;
13592;SDS011;6867;50.998;4.250;2024-03-08T13:37:39;17.07;;;11.53;;
13592;SDS011;6867;50.998;4.250;2024-03-08T13:40:06;18.30;;;10.82;;
13592;SDS011;6867;50.998;4.250;2024-03-08T13:42:36;18.70;;;10.75;;
13592;SDS011;6867;50.998;4.250;2024-03-08T13:45:03;19.30;;;10.98;;
13592;SDS011;6867;50.998;4.250;2024-03-08T13:47:32;16.52;;;10.30;;
13592;SDS011;6867;50.998;4.250;2024-03-08T13:49:59;17.67;;;10.75;;
13592;SDS011;6867;50.998;4.250;2024-03-08T13:52:26;18.88;;;10.38;;
13592;SDS011;6867;50.998;4.250;2024-03-08T13:54:55;21.52;;;10.68;;
13592;SDS011;6867;50.998;4.250;2024-03-08T13:57:22;15.85;;;10.85;;
13592;SDS011;6867;50.998;4.250;2024-03-08T13:59:49;15.70;;;10.70;;
13592;SDS011;6867;50.998;4.250;2024-03-08T14:02:16;15.37;;;10.67;;
13592;SDS011;6867;50.998;4.250;2024-03-08T14:04:43;15.30;;;10.50;;
13592;SDS011;6867;50.998;4.250;2024-03-08T14:07:10;16.23;;;10.63;;
13592;SDS011;6867;50.998;4.250;2024-03-08T14:09:40;18.67;;;11.38;;
13592;SDS011;6867;50.998;4.250;2024-03-08T14:12:09;17.08;;;10.93;;
13592;SDS011;6867;50.998;4.250;2024-03-08T14:14:36;15.23;;;9.98;;
13592;SDS011;6867;50.998;4.250;2024-03-08T14:17:03;15.23;;;11.02;;
13592;SDS011;6867;50.998;4.250;2024-03-08T14:19:32;21.20;;;12.18;;
13592;SDS011;6867;50.998;4.250;2024-03-08T14:22:00;15.45;;;10.52;;
13592;SDS011;6867;50.998;4.250;2024-03-08T14:24:29;16.50;;;10.43;;
13592;SDS011;6867;50.998;4.250;2024-03-08T14:26:56;14.88;;;10.48;;
13592;SDS011;6867;50.998;4.250;2024-03-08T14:29:25;16.38;;;10.45;;
13592;SDS011;6867;50.998;4.250;2024-03-08T14:31:54;16.00;;;11.02;;
13592;SDS011;6867;50.998;4.250;2024-03-08T14:34:22;16.92;;;10.52;;
13592;SDS011;6867;50.998;4.250;2024-03-08T14:36:52;16.40;;;10.73;;
13592;SDS011;6867;50.998;4.250;2024-03-08T14:39:19;16.42;;;10.30;;
13592;SDS011;6867;50.998;4.250;2024-03-08T14:41:47;17.13;;;10.65;;
13592;SDS011;6867;50.998;4.250;2024-03-08T14:44:13;16.08;;;9.98;;
13592;SDS011;6867;50.998;4.250;2024-03-08T14:46:42;14.48;;;10.25;;